sensor_id;sensor_type;location;lat;lon;timestamp;pressure;altitude;pressure_sealevel;temperature;humidity
23229;BME280;11783;50.350;6.576;2023-07-29T00:00:19;95585.00;;;18.92;100.00
23229;BME280;11783;50.350;6.576;2023-07-29T00:02:45;95576.13;;;18.92;100.00
23229;BME280;11783;50.350;6.576;2023-07-29T00:05:11;95568.41;;;18.99;100.00
23229;BME280;11783;50.350;6.576;2023-07-29T00:07:36;95569.16;;;18.91;100.00
23229;BME280;11783;50.350;6.576;2023-07-29T00:10:02;95572.22;;;18.98;100.00
23229;BME280;11783;50.350;6.576;2023-07-29T00:12:28;95569.84;;;19.05;100.00
23229;BME280;11783;50.350;6.576;2023-07-29T00:14:54;95552.09;;;19.04;100.00
23229;BME280;11783;50.350;6.576;2023-07-29T00:17:19;95563.97;;;19.03;100.00
23229;BME280;11783;50.350;6.576;2023-07-29T00:19:46;95567.00;;;19.01;100.00
23229;BME280;11783;50.350;6.576;2023-07-29T00:22:11;95555.44;;;19.01;100.00
23229;BME280;11783;50.350;6.576;2023-07-29T00:24:37;95554.00;;;19.03;100.00
23229;BME280;11783;50.350;6.576;2023-07-29T00:27:02;95558.75;;;19.06;100.00
23229;BME280;11783;50.350;6.576;2023-07-29T00:29:28;95556.22;;;19.01;100.00
23229;BME280;11783;50.350;6.576;2023-07-29T00:31:53;95555.75;;;18.99;100.00
23229;BME280;11783;50.350;6.576;2023-07-29T00:34:18;95560.66;;;18.97;100.00
23229;BME280;11783;50.350;6.576;2023-07-29T00:36:45;95569.69;;;19.01;100.00
23229;BME280;11783;50.350;6.576;2023-07-29T00:39:11;95561.25;;;18.94;100.00
23229;BME280;11783;50.350;6.576;2023-07-29T00:41:36;95560.28;;;18.90;100.00
23229;BME280;11783;50.350;6.576;2023-07-29T00:44:01;95554.88;;;18.82;100.00
23229;BME280;11783;50.350;6.576;2023-07-29T00:46:28;95551.88;;;18.83;100.00
23229;BME280;11783;50.350;6.576;2023-07-29T00:48:55;95541.75;;;18.89;100.00
23229;BME280;11783;50.350;6.576;2023-07-29T00:51:21;95553.78;;;18.83;100.00
23229;BME280;11783;50.350;6.576;2023-07-29T00:53:46;95545.34;;;18.75;100.00
23229;BME280;11783;50.350;6.576;2023-07-29T00:56:12;95537.63;;;18.83;100.00
23229;BME280;11783;50.350;6.576;2023-07-29T00:58:37;95540.00;;;18.84;100.00
23229;BME280;11783;50.350;6.576;2023-07-29T01:01:02;95543.00;;;18.83;100.00
23229;BME280;11783;50.350;6.576;2023-07-29T01:03:28;95538.84;;;18.76;100.00
23229;BME280;11783;50.350;6.576;2023-07-29T01:06:18;95524.50;;;18.90;100.00
23229;BME280;11783;50.350;6.576;2023-07-29T01:09:01;95540.16;;;18.88;100.00
23229;BME280;11783;50.350;6.576;2023-07-29T01:12:12;95530.34;;;18.83;100.00
23229;BME280;11783;50.350;6.576;2023-07-29T01:17:30;95534.00;;;18.87;100.00
23229;BME280;11783;50.350;6.576;2023-07-29T01:20:07;95523.69;;;18.81;100.00
23229;BME280;11783;50.350;6.576;2023-07-29T01:22:34;95528.94;;;18.94;100.00
23229;BME280;11783;50.350;6.576;2023-07-29T01:25:00;95536.53;;;18.92;100.00
23229;BME280;11783;50.350;6.576;2023-07-29T01:27:26;95532.56;;;18.90;100.00
23229;BME280;11783;50.350;6.576;2023-07-29T01:29:52;95534.78;;;18.88;100.00
23229;BME280;11783;50.350;6.576;2023-07-29T01:35:24;95536.38;;;18.89;100.00
23229;BME280;11783;50.350;6.576;2023-07-29T01:37:55;95526.44;;;18.98;100.00
23229;BME280;11783;50.350;6.576;2023-07-29T01:40:27;95536.53;;;18.92;100.00
23229;BME280;11783;50.350;6.576;2023-07-29T01:42:53;95522.91;;;18.80;100.00
23229;BME280;11783;50.350;6.576;2023-07-29T01:45:18;95532.88;;;18.80;100.00
23229;BME280;11783;50.350;6.576;2023-07-29T01:47:44;95532.09;;;18.88;100.00
23229;BME280;11783;50.350;6.576;2023-07-29T01:50:09;95515.72;;;18.75;100.00
23229;BME280;11783;50.350;6.576;2023-07-29T01:52:35;95506.28;;;18.87;100.00
23229;BME280;11783;50.350;6.576;2023-07-29T01:55:01;95507.53;;;18.81;100.00
23229;BME280;11783;50.350;6.576;2023-07-29T01:57:27;95512.13;;;18.80;100.00
23229;BME280;11783;50.350;6.576;2023-07-29T01:59:52;95512.78;;;18.86;100.00
23229;BME280;11783;50.350;6.576;2023-07-29T02:02:17;95512.25;;;18.75;100.00
23229;BME280;11783;50.350;6.576;2023-07-29T02:04:43;95510.06;;;18.86;100.00
23229;BME280;11783;50.350;6.576;2023-07-29T02:07:08;95509.56;;;18.75;100.00
23229;BME280;11783;50.350;6.576;2023-07-29T02:09:33;95500.09;;;18.86;100.00
23229;BME280;11783;50.350;6.576;2023-07-29T02:11:59;95498.69;;;18.89;100.00
23229;BME280;11783;50.350;6.576;2023-07-29T02:14:24;95494.88;;;18.81;100.00
23229;BME280;11783;50.350;6.576;2023-07-29T02:16:49;95494.38;;;18.79;100.00
23229;BME280;11783;50.350;6.576;2023-07-29T02:19:15;95483.44;;;18.75;100.00
23229;BME280;11783;50.350;6.576;2023-07-29T02:21:41;95480.25;;;18.73;100.00
23229;BME280;11783;50.350;6.576;2023-07-29T02:24:06;95480.78;;;18.84;100.00
23229;BME280;11783;50.350;6.576;2023-07-29T02:26:31;95479.63;;;18.76;100.00
23229;BME280;11783;50.350;6.576;2023-07-29T02:28:57;95486.13;;;18.75;100.00
23229;BME280;11783;50.350;6.576;2023-07-29T02:31:24;95481.69;;;18.71;100.00
23229;BME280;11783;50.350;6.576;2023-07-29T02:33:51;95488.13;;;18.61;100.00
23229;BME280;11783;50.350;6.576;2023-07-29T02:36:17;95482.06;;;18.56;100.00
23229;BME280;11783;50.350;6.576;2023-07-29T02:38:43;95487.63;;;18.59;100.00
23229;BME280;11783;50.350;6.576;2023-07-29T02:41:09;95481.28;;;18.55;100.00
23229;BME280;11783;50.350;6.576;2023-07-29T02:43:35;95473.56;;;18.62;100.00
23229;BME280;11783;50.350;6.576;2023-07-29T02:46:04;95476.22;;;18.54;100.00
23229;BME280;11783;50.350;6.576;2023-07-29T02:48:29;95485.09;;;18.54;100.00
23229;BME280;11783;50.350;6.576;2023-07-29T02:50:55;95487.59;;;18.51;100.00
23229;BME280;11783;50.350;6.576;2023-07-29T02:53:22;95478.25;;;18.48;100.00
23229;BME280;11783;50.350;6.576;2023-07-29T02:55:48;95491.72;;;18.48;100.00
23229;BME280;11783;50.350;6.576;2023-07-29T02:58:13;95495.38;;;18.52;100.00
23229;BME280;11783;50.350;6.576;2023-07-29T03:00:38;95487.59;;;18.51;100.00
23229;BME280;11783;50.350;6.576;2023-07-29T03:03:07;95486.59;;;18.38;100.00
23229;BME280;11783;50.350;6.576;2023-07-29T03:05:32;95485.16;;;18.32;100.00
23229;BME280;11783;50.350;6.576;2023-07-29T03:07:58;95491.63;;;18.31;100.00
23229;BME280;11783;50.350;6.576;2023-07-29T03:10:23;95484.50;;;18.26;100.00
23229;BME280;11783;50.350;6.576;2023-07-29T03:12:48;95489.41;;;18.24;100.00
23229;BME280;11783;50.350;6.576;2023-07-29T03:15:14;95473.06;;;18.21;100.00
23229;BME280;11783;50.350;6.576;2023-07-29T03:17:39;95486.41;;;18.26;100.00
23229;BME280;11783;50.350;6.576;2023-07-29T03:20:05;95484.19;;;18.28;100.00
23229;BME280;11783;50.350;6.576;2023-07-29T03:22:31;95491.16;;;18.29;100.00
23229;BME280;11783;50.350;6.576;2023-07-29T03:24:56;95480.25;;;18.34;100.00
23229;BME280;11783;50.350;6.576;2023-07-29T03:27:21;95491.19;;;18.37;100.00
23229;BME280;11783;50.350;6.576;2023-07-29T03:29:47;95493.41;;;18.35;100.00
23229;BME280;11783;50.350;6.576;2023-07-29T03:32:12;95500.72;;;18.43;100.00
23229;BME280;11783;50.350;6.576;2023-07-29T03:34:38;95503.28;;;18.49;100.00
23229;BME280;11783;50.350;6.576;2023-07-29T03:37:05;95509.44;;;18.49;100.00
23229;BME280;11783;50.350;6.576;2023-07-29T03:39:31;95517.53;;;18.49;100.00
23229;BME280;11783;50.350;6.576;2023-07-29T03:41:56;95515.94;;;18.48;100.00
23229;BME280;11783;50.350;6.576;2023-07-29T03:44:21;95523.69;;;18.50;100.00
23229;BME280;11783;50.350;6.576;2023-07-29T03:46:46;95513.09;;;18.53;100.00
23229;BME280;11783;50.350;6.576;2023-07-29T03:49:12;95512.78;;;18.55;100.00
23229;BME280;11783;50.350;6.576;2023-07-29T03:51:37;95513.56;;;18.55;100.00
23229;BME280;11783;50.350;6.576;2023-07-29T03:54:02;95507.09;;;18.56;100.00
23229;BME280;11783;50.350;6.576;2023-07-29T03:56:28;95515.44;;;18.46;100.00
23229;BME280;11783;50.350;6.576;2023-07-29T03:58:53;95514.81;;;18.49;100.00
23229;BME280;11783;50.350;6.576;2023-07-29T04:01:19;95513.56;;;18.46;100.00
23229;BME280;11783;50.350;6.576;2023-07-29T04:03:45;95519.56;;;18.43;100.00
23229;BME280;11783;50.350;6.576;2023-07-29T04:06:11;95521.56;;;18.38;100.00
23229;BME280;11783;50.350;6.576;2023-07-29T04:08:37;95522.06;;;18.40;100.00
23229;BME280;11783;50.350;6.576;2023-07-29T04:11:02;95524.75;;;18.40;100.00
23229;BME280;11783;50.350;6.576;2023-07-29T04:13:28;95519.34;;;18.40;100.00
23229;BME280;11783;50.350;6.576;2023-07-29T04:15:53;95524.75;;;18.40;100.00
23229;BME280;11783;50.350;6.576;2023-07-29T04:18:18;95518.88;;;18.38;100.00
23229;BME280;11783;50.350;6.576;2023-07-29T04:20:44;95517.59;;;18.35;100.00
23229;BME280;11783;50.350;6.576;2023-07-29T04:23:10;95516.66;;;18.40;100.00
23229;BME280;11783;50.350;6.576;2023-07-29T04:25:35;95527.31;;;18.45;100.00
23229;BME280;11783;50.350;6.576;2023-07-29T04:28:00;95525.75;;;18.53;100.00
23229;BME280;11783;50.350;6.576;2023-07-29T04:30:28;95527.66;;;18.52;100.00
23229;BME280;11783;50.350;6.576;2023-07-29T04:32:53;95522.09;;;18.49;100.00
23229;BME280;11783;50.350;6.576;2023-07-29T04:35:18;95520.03;;;18.45;100.00
23229;BME280;11783;50.350;6.576;2023-07-29T04:37:44;95518.41;;;18.36;100.00
23229;BME280;11783;50.350;6.576;2023-07-29T04:40:10;95521.72;;;18.33;100.00
23229;BME280;11783;50.350;6.576;2023-07-29T04:42:36;95518.19;;;18.24;100.00
23229;BME280;11783;50.350;6.576;2023-07-29T04:45:02;95523.06;;;18.22;100.00
23229;BME280;11783;50.350;6.576;2023-07-29T04:47:27;95522.00;;;18.23;100.00
23229;BME280;11783;50.350;6.576;2023-07-29T04:49:53;95521.31;;;18.17;100.00
23229;BME280;11783;50.350;6.576;2023-07-29T04:52:18;95520.88;;;18.24;100.00
23229;BME280;11783;50.350;6.576;2023-07-29T04:54:44;95518.78;;;18.21;100.00
23229;BME280;11783;50.350;6.576;2023-07-29T04:57:10;95520.69;;;18.20;100.00
23229;BME280;11783;50.350;6.576;2023-07-29T04:59:35;95510.91;;;18.24;100.00
23229;BME280;11783;50.350;6.576;2023-07-29T05:02:00;95510.00;;;18.29;100.00
23229;BME280;11783;50.350;6.576;2023-07-29T05:04:26;95518.41;;;18.36;100.00
23229;BME280;11783;50.350;6.576;2023-07-29T05:06:51;95526.00;;;18.34;100.00
23229;BME280;11783;50.350;6.576;2023-07-29T05:09:17;95523.59;;;18.32;100.00
23229;BME280;11783;50.350;6.576;2023-07-29T05:11:43;95521.09;;;18.36;100.00
23229;BME280;11783;50.350;6.576;2023-07-29T05:14:17;95532.47;;;18.33;100.00
23229;BME280;11783;50.350;6.576;2023-07-29T05:16:43;95532.34;;;18.38;100.00
23229;BME280;11783;50.350;6.576;2023-07-29T05:19:08;95516.50;;;18.36;100.00
23229;BME280;11783;50.350;6.576;2023-07-29T05:21:36;95519.47;;;18.26;100.00
23229;BME280;11783;50.350;6.576;2023-07-29T05:24:02;95517.09;;;18.25;100.00
23229;BME280;11783;50.350;6.576;2023-07-29T05:26:27;95518.69;;;18.26;100.00
23229;BME280;11783;50.350;6.576;2023-07-29T05:28:52;95515.38;;;18.29;100.00
23229;BME280;11783;50.350;6.576;2023-07-29T05:31:17;95513.00;;;18.27;100.00
23229;BME280;11783;50.350;6.576;2023-07-29T05:33:43;95511.22;;;18.23;100.00
23229;BME280;11783;50.350;6.576;2023-07-29T05:36:08;95514.25;;;18.30;100.00
23229;BME280;11783;50.350;6.576;2023-07-29T05:38:34;95520.59;;;18.34;100.00
23229;BME280;11783;50.350;6.576;2023-07-29T05:40:59;95527.41;;;18.31;100.00
23229;BME280;11783;50.350;6.576;2023-07-29T05:43:26;95529.78;;;18.33;100.00
23229;BME280;11783;50.350;6.576;2023-07-29T05:45:51;95538.94;;;18.32;100.00
23229;BME280;11783;50.350;6.576;2023-07-29T05:48:17;95548.78;;;18.36;100.00
23229;BME280;11783;50.350;6.576;2023-07-29T05:50:42;95544.97;;;18.29;100.00
23229;BME280;11783;50.350;6.576;2023-07-29T05:53:07;95565.38;;;18.30;100.00
23229;BME280;11783;50.350;6.576;2023-07-29T05:55:33;95560.78;;;18.30;100.00
23229;BME280;11783;50.350;6.576;2023-07-29T05:57:58;95560.03;;;18.38;100.00
23229;BME280;11783;50.350;6.576;2023-07-29T06:00:23;95562.41;;;18.40;100.00
23229;BME280;11783;50.350;6.576;2023-07-29T06:02:49;95565.28;;;18.43;100.00
23229;BME280;11783;50.350;6.576;2023-07-29T06:05:14;95560.50;;;18.40;100.00
23229;BME280;11783;50.350;6.576;2023-07-29T06:07:40;95562.53;;;18.35;100.00
23229;BME280;11783;50.350;6.576;2023-07-29T06:10:09;95566.50;;;18.37;100.00
23229;BME280;11783;50.350;6.576;2023-07-29T06:12:37;95568.09;;;18.38;100.00
23229;BME280;11783;50.350;6.576;2023-07-29T06:15:02;95568.28;;;18.42;100.00
23229;BME280;11783;50.350;6.576;2023-07-29T06:17:28;95568.28;;;18.42;100.00
23229;BME280;11783;50.350;6.576;2023-07-29T06:19:53;95572.56;;;18.43;100.00
23229;BME280;11783;50.350;6.576;2023-07-29T06:22:19;95572.75;;;18.46;100.00
23229;BME280;11783;50.350;6.576;2023-07-29T06:24:44;95578.53;;;18.40;100.00
23229;BME280;11783;50.350;6.576;2023-07-29T06:27:09;95582.66;;;18.37;100.00
23229;BME280;11783;50.350;6.576;2023-07-29T06:29:35;95577.47;;;18.41;100.00
23229;BME280;11783;50.350;6.576;2023-07-29T06:32:00;95574.28;;;18.39;100.00
23229;BME280;11783;50.350;6.576;2023-07-29T06:34:25;95569.66;;;18.31;100.00
23229;BME280;11783;50.350;6.576;2023-07-29T06:36:51;95562.38;;;18.31;100.00
23229;BME280;11783;50.350;6.576;2023-07-29T06:39:16;95562.22;;;18.36;100.00
23229;BME280;11783;50.350;6.576;2023-07-29T06:41:41;95560.03;;;18.38;100.00
23229;BME280;11783;50.350;6.576;2023-07-29T06:44:07;95565.59;;;18.42;100.00
23229;BME280;11783;50.350;6.576;2023-07-29T06:46:32;95572.09;;;18.41;100.00
23229;BME280;11783;50.350;6.576;2023-07-29T06:48:57;95578.75;;;18.43;100.00
23229;BME280;11783;50.350;6.576;2023-07-29T06:51:23;95574.03;;;18.49;100.00
23229;BME280;11783;50.350;6.576;2023-07-29T06:53:48;95580.50;;;18.48;100.00
23229;BME280;11783;50.350;6.576;2023-07-29T06:56:13;95586.69;;;18.49;100.00
23229;BME280;11783;50.350;6.576;2023-07-29T06:58:39;95582.56;;;18.51;100.00
23229;BME280;11783;50.350;6.576;2023-07-29T07:01:04;95583.72;;;18.59;100.00
23229;BME280;11783;50.350;6.576;2023-07-29T07:03:29;95579.63;;;18.61;100.00
23229;BME280;11783;50.350;6.576;2023-07-29T07:05:54;95577.84;;;18.57;100.00
23229;BME280;11783;50.350;6.576;2023-07-29T07:08:20;95583.63;;;18.64;100.00
23229;BME280;11783;50.350;6.576;2023-07-29T07:10:47;95581.09;;;18.67;100.00
23229;BME280;11783;50.350;6.576;2023-07-29T07:13:12;95577.16;;;18.73;100.00
23229;BME280;11783;50.350;6.576;2023-07-29T07:15:38;95570.56;;;18.80;100.00
23229;BME280;11783;50.350;6.576;2023-07-29T07:18:03;95578.31;;;18.81;100.00
23229;BME280;11783;50.350;6.576;2023-07-29T07:20:28;95583.41;;;18.91;100.00
23229;BME280;11783;50.350;6.576;2023-07-29T07:22:54;95590.56;;;18.96;100.00
23229;BME280;11783;50.350;6.576;2023-07-29T07:25:19;95591.22;;;19.01;100.00
23229;BME280;11783;50.350;6.576;2023-07-29T07:27:44;95592.50;;;19.04;100.00
23229;BME280;11783;50.350;6.576;2023-07-29T07:30:10;95585.22;;;19.13;100.00
23229;BME280;11783;50.350;6.576;2023-07-29T07:32:36;95594.41;;;19.12;100.00
23229;BME280;11783;50.350;6.576;2023-07-29T07:35:01;95583.84;;;19.16;100.00
23229;BME280;11783;50.350;6.576;2023-07-29T07:37:27;95593.81;;;19.24;100.00
23229;BME280;11783;50.350;6.576;2023-07-29T07:39:52;95595.72;;;19.23;100.00
23229;BME280;11783;50.350;6.576;2023-07-29T07:42:17;95597.16;;;19.29;100.00
23229;BME280;11783;50.350;6.576;2023-07-29T07:44:43;95594.19;;;19.40;100.00
23229;BME280;11783;50.350;6.576;2023-07-29T07:47:08;95593.50;;;19.25;99.71
23229;BME280;11783;50.350;6.576;2023-07-29T07:49:33;95607.28;;;19.24;100.00
23229;BME280;11783;50.350;6.576;2023-07-29T07:51:59;95619.31;;;19.18;100.00
23229;BME280;11783;50.350;6.576;2023-07-29T07:54:24;95625.28;;;19.06;100.00
23229;BME280;11783;50.350;6.576;2023-07-29T07:56:49;95626.06;;;18.98;100.00
23229;BME280;11783;50.350;6.576;2023-07-29T07:59:15;95639.44;;;18.81;100.00
23229;BME280;11783;50.350;6.576;2023-07-29T08:01:40;95623.16;;;18.86;100.00
23229;BME280;11783;50.350;6.576;2023-07-29T08:04:06;95636.88;;;18.75;100.00
23229;BME280;11783;50.350;6.576;2023-07-29T08:06:32;95633.84;;;18.68;100.00
23229;BME280;11783;50.350;6.576;2023-07-29T08:08:58;95638.84;;;18.61;100.00
23229;BME280;11783;50.350;6.576;2023-07-29T08:11:23;95634.31;;;18.48;100.00
23229;BME280;11783;50.350;6.576;2023-07-29T08:13:49;95630.88;;;18.56;100.00
23229;BME280;11783;50.350;6.576;2023-07-29T08:16:14;95629.66;;;18.62;100.00
23229;BME280;11783;50.350;6.576;2023-07-29T08:18:40;95634.00;;;18.72;100.00
23229;BME280;11783;50.350;6.576;2023-07-29T08:21:05;95631.00;;;18.73;100.00
23229;BME280;11783;50.350;6.576;2023-07-29T08:23:32;95637.66;;;18.76;100.00
23229;BME280;11783;50.350;6.576;2023-07-29T08:25:59;95636.94;;;18.84;100.00
23229;BME280;11783;50.350;6.576;2023-07-29T08:28:40;95642.13;;;18.81;100.00
23229;BME280;11783;50.350;6.576;2023-07-29T08:31:06;95637.09;;;18.88;100.00
23229;BME280;11783;50.350;6.576;2023-07-29T08:33:32;95631.09;;;18.91;100.00
23229;BME280;11783;50.350;6.576;2023-07-29T08:35:59;95635.69;;;18.90;100.00
23229;BME280;11783;50.350;6.576;2023-07-29T08:38:24;95641.91;;;18.99;100.00
23229;BME280;11783;50.350;6.576;2023-07-29T08:40:54;95631.16;;;18.99;100.00
23229;BME280;11783;50.350;6.576;2023-07-29T08:43:27;95634.31;;;19.01;100.00
23229;BME280;11783;50.350;6.576;2023-07-29T08:45:54;95637.94;;;18.97;100.00
23229;BME280;11783;50.350;6.576;2023-07-29T08:48:24;95628.00;;;19.06;100.00
23229;BME280;11783;50.350;6.576;2023-07-29T08:50:54;95630.06;;;19.09;100.00
23229;BME280;11783;50.350;6.576;2023-07-29T08:53:21;95631.00;;;19.13;100.00
23229;BME280;11783;50.350;6.576;2023-07-29T08:55:47;95627.41;;;19.26;100.00
23229;BME280;11783;50.350;6.576;2023-07-29T08:58:12;95630.78;;;19.41;100.00
23229;BME280;11783;50.350;6.576;2023-07-29T09:00:38;95633.03;;;19.47;100.00
23229;BME280;11783;50.350;6.576;2023-07-29T09:03:04;95632.59;;;19.54;100.00
23229;BME280;11783;50.350;6.576;2023-07-29T09:05:33;95641.41;;;19.46;100.00
23229;BME280;11783;50.350;6.576;2023-07-29T09:07:59;95629.13;;;19.62;100.00
23229;BME280;11783;50.350;6.576;2023-07-29T09:10:25;95636.44;;;19.79;100.00
23229;BME280;11783;50.350;6.576;2023-07-29T09:12:51;95634.06;;;19.77;95.16
23229;BME280;11783;50.350;6.576;2023-07-29T09:15:30;95636.94;;;19.72;95.60
23229;BME280;11783;50.350;6.576;2023-07-29T09:17:57;95643.75;;;19.78;100.00
23229;BME280;11783;50.350;6.576;2023-07-29T09:20:27;95643.91;;;19.82;96.99
23229;BME280;11783;50.350;6.576;2023-07-29T09:22:58;95644.06;;;19.77;100.00
23229;BME280;11783;50.350;6.576;2023-07-29T09:25:27;95642.03;;;19.91;100.00
23229;BME280;11783;50.350;6.576;2023-07-29T09:27:53;95642.47;;;20.02;98.22
23229;BME280;11783;50.350;6.576;2023-07-29T09:30:23;95641.53;;;20.06;94.49
23229;BME280;11783;50.350;6.576;2023-07-29T09:32:54;95643.44;;;20.23;99.92
23229;BME280;11783;50.350;6.576;2023-07-29T09:35:19;95631.38;;;20.29;97.12
23229;BME280;11783;50.350;6.576;2023-07-29T09:37:45;95627.88;;;20.37;95.79
23229;BME280;11783;50.350;6.576;2023-07-29T09:40:14;95625.16;;;20.37;91.78
23229;BME280;11783;50.350;6.576;2023-07-29T09:42:47;95631.69;;;20.53;95.53
23229;BME280;11783;50.350;6.576;2023-07-29T09:45:27;95631.06;;;20.48;91.53
23229;BME280;11783;50.350;6.576;2023-07-29T09:47:54;95635.50;;;20.52;96.08
23229;BME280;11783;50.350;6.576;2023-07-29T09:50:23;95629.91;;;20.66;95.97
23229;BME280;11783;50.350;6.576;2023-07-29T09:52:51;95639.38;;;20.81;97.69
23229;BME280;11783;50.350;6.576;2023-07-29T09:55:18;95644.50;;;20.82;95.56
23229;BME280;11783;50.350;6.576;2023-07-29T09:57:44;95636.69;;;20.90;92.62
23229;BME280;11783;50.350;6.576;2023-07-29T10:00:13;95649.25;;;20.85;93.08
23229;BME280;11783;50.350;6.576;2023-07-29T10:02:41;95655.78;;;20.76;88.44
23229;BME280;11783;50.350;6.576;2023-07-29T10:05:08;95659.59;;;20.83;92.13
23229;BME280;11783;50.350;6.576;2023-07-29T10:07:38;95656.56;;;20.85;93.99
23229;BME280;11783;50.350;6.576;2023-07-29T10:10:04;95652.75;;;20.86;91.74
23229;BME280;11783;50.350;6.576;2023-07-29T10:12:31;95662.06;;;20.97;93.07
23229;BME280;11783;50.350;6.576;2023-07-29T10:14:59;95650.78;;;20.95;94.07
23229;BME280;11783;50.350;6.576;2023-07-29T10:17:26;95654.63;;;20.94;94.79
23229;BME280;11783;50.350;6.576;2023-07-29T10:19:52;95645.84;;;20.97;92.08
23229;BME280;11783;50.350;6.576;2023-07-29T10:22:20;95651.97;;;20.77;87.74
23229;BME280;11783;50.350;6.576;2023-07-29T10:24:47;95651.47;;;20.83;90.18
23229;BME280;11783;50.350;6.576;2023-07-29T10:27:17;95659.88;;;20.82;85.21
23229;BME280;11783;50.350;6.576;2023-07-29T10:29:45;95664.63;;;20.94;89.54
23229;BME280;11783;50.350;6.576;2023-07-29T10:32:11;95656.47;;;21.11;87.81
23229;BME280;11783;50.350;6.576;2023-07-29T10:34:37;95661.06;;;21.10;84.31
23229;BME280;11783;50.350;6.576;2023-07-29T10:37:04;95650.53;;;21.17;87.71
23229;BME280;11783;50.350;6.576;2023-07-29T10:39:38;95654.38;;;21.25;85.35
23229;BME280;11783;50.350;6.576;2023-07-29T10:42:05;95648.66;;;21.27;85.86
23229;BME280;11783;50.350;6.576;2023-07-29T10:47:20;95644.81;;;21.28;85.59
23229;BME280;11783;50.350;6.576;2023-07-29T10:49:50;95642.13;;;21.28;86.15
23229;BME280;11783;50.350;6.576;2023-07-29T10:52:17;95637.19;;;21.30;87.24
23229;BME280;11783;50.350;6.576;2023-07-29T10:54:52;95640.19;;;21.20;81.88
23229;BME280;11783;50.350;6.576;2023-07-29T10:57:34;95630.84;;;21.26;86.55
23229;BME280;11783;50.350;6.576;2023-07-29T11:00:00;95631.34;;;21.10;84.67
23229;BME280;11783;50.350;6.576;2023-07-29T11:02:30;95638.78;;;21.22;89.74
23229;BME280;11783;50.350;6.576;2023-07-29T11:04:56;95641.19;;;21.53;88.75
23229;BME280;11783;50.350;6.576;2023-07-29T11:07:28;95640.28;;;21.70;85.22
23229;BME280;11783;50.350;6.576;2023-07-29T11:12:47;95625.94;;;21.78;85.79
23229;BME280;11783;50.350;6.576;2023-07-29T11:15:32;95625.66;;;21.92;84.04
23229;BME280;11783;50.350;6.576;2023-07-29T11:18:00;95633.59;;;21.97;84.42
23229;BME280;11783;50.350;6.576;2023-07-29T11:20:27;95631.75;;;22.10;84.42
23229;BME280;11783;50.350;6.576;2023-07-29T11:22:54;95624.59;;;22.14;83.46
23229;BME280;11783;50.350;6.576;2023-07-29T11:25:22;95619.81;;;22.11;79.31
23229;BME280;11783;50.350;6.576;2023-07-29T11:27:47;95621.13;;;22.25;82.44
23229;BME280;11783;50.350;6.576;2023-07-29T11:30:14;95624.91;;;22.33;81.93
23229;BME280;11783;50.350;6.576;2023-07-29T11:32:42;95632.41;;;22.27;77.18
23229;BME280;11783;50.350;6.576;2023-07-29T11:35:12;95636.97;;;22.35;81.47
23229;BME280;11783;50.350;6.576;2023-07-29T11:37:40;95637.16;;;22.51;82.77
23229;BME280;11783;50.350;6.576;2023-07-29T11:40:06;95622.31;;;22.70;82.21
23229;BME280;11783;50.350;6.576;2023-07-29T11:42:33;95632.13;;;22.74;79.10
23229;BME280;11783;50.350;6.576;2023-07-29T11:44:59;95619.72;;;22.73;79.22
23229;BME280;11783;50.350;6.576;2023-07-29T11:47:25;95623.09;;;22.70;76.67
23229;BME280;11783;50.350;6.576;2023-07-29T11:49:51;95630.66;;;22.77;80.10
23229;BME280;11783;50.350;6.576;2023-07-29T11:52:18;95622.97;;;22.66;77.58
23229;BME280;11783;50.350;6.576;2023-07-29T11:54:46;95613.63;;;22.76;77.99
23229;BME280;11783;50.350;6.576;2023-07-29T11:57:12;95609.78;;;22.77;75.90
23229;BME280;11783;50.350;6.576;2023-07-29T11:59:39;95588.38;;;22.84;75.85
23229;BME280;11783;50.350;6.576;2023-07-29T12:02:08;95580.72;;;22.99;74.71
23229;BME280;11783;50.350;6.576;2023-07-29T12:04:35;95589.75;;;23.03;76.09
23229;BME280;11783;50.350;6.576;2023-07-29T12:07:01;95578.03;;;23.11;76.06
23229;BME280;11783;50.350;6.576;2023-07-29T12:09:27;95577.34;;;23.14;73.91
23229;BME280;11783;50.350;6.576;2023-07-29T12:11:55;95580.84;;;23.26;75.44
23229;BME280;11783;50.350;6.576;2023-07-29T12:14:21;95572.34;;;23.40;73.88
23229;BME280;11783;50.350;6.576;2023-07-29T12:16:48;95567.94;;;23.23;69.92
23229;BME280;11783;50.350;6.576;2023-07-29T12:19:14;95575.75;;;23.37;71.53
23229;BME280;11783;50.350;6.576;2023-07-29T12:21:44;95574.84;;;23.58;70.19
23229;BME280;11783;50.350;6.576;2023-07-29T12:24:11;95572.94;;;23.46;72.09
23229;BME280;11783;50.350;6.576;2023-07-29T12:26:37;95585.69;;;23.33;72.77
23229;BME280;11783;50.350;6.576;2023-07-29T12:29:17;95592.13;;;23.29;69.96
23229;BME280;11783;50.350;6.576;2023-07-29T12:31:45;95611.22;;;23.08;72.57
23229;BME280;11783;50.350;6.576;2023-07-29T12:34:17;95606.22;;;22.98;71.13
23229;BME280;11783;50.350;6.576;2023-07-29T12:36:44;95600.84;;;23.10;73.08
23229;BME280;11783;50.350;6.576;2023-07-29T12:39:30;95600.03;;;23.21;70.34
23229;BME280;11783;50.350;6.576;2023-07-29T12:41:57;95587.97;;;23.43;71.57
23229;BME280;11783;50.350;6.576;2023-07-29T12:44:32;95593.25;;;23.52;70.49
23229;BME280;11783;50.350;6.576;2023-07-29T12:46:59;95607.19;;;23.63;67.96
23229;BME280;11783;50.350;6.576;2023-07-29T12:49:24;95626.03;;;23.35;69.06
23229;BME280;11783;50.350;6.576;2023-07-29T12:51:50;95617.09;;;23.10;69.23
23229;BME280;11783;50.350;6.576;2023-07-29T12:54:15;95608.53;;;23.08;68.65
23229;BME280;11783;50.350;6.576;2023-07-29T12:56:40;95605.22;;;23.02;69.06
23229;BME280;11783;50.350;6.576;2023-07-29T12:59:06;95588.41;;;22.96;71.30
23229;BME280;11783;50.350;6.576;2023-07-29T13:01:31;95597.53;;;23.04;69.91